createdAt,value
2018-05-11T00:00:51.006Z,60.57
2018-05-11T00:03:18.453Z,60.32
2018-05-11T00:05:45.856Z,60.27
2018-05-11T00:08:13.268Z,60.25
2018-05-11T00:10:40.677Z,60.17
2018-05-11T00:13:08.097Z,60.21
2018-05-11T00:15:35.500Z,60.59
2018-05-11T00:18:02.928Z,60.83
2018-05-11T00:20:30.332Z,61.19
2018-05-11T00:22:57.748Z,61.56
2018-05-11T00:25:25.161Z,61.79
2018-05-11T00:27:52.577Z,61.87
2018-05-11T00:30:19.984Z,62.00
2018-05-11T00:32:47.401Z,62.32
2018-05-11T00:35:14.833Z,62.16
2018-05-11T00:37:42.252Z,62.33
2018-05-11T00:40:09.661Z,62.54
2018-05-11T00:42:37.080Z,62.42
2018-05-11T00:45:04.488Z,62.40
2018-05-11T00:47:31.940Z,62.09
2018-05-11T00:49:59.353Z,61.95
2018-05-11T00:52:26.765Z,61.80
2018-05-11T00:54:54.173Z,61.77
2018-05-11T00:57:21.591Z,61.70
2018-05-11T00:59:49.004Z,61.64
2018-05-11T01:02:16.413Z,61.54
2018-05-11T01:04:43.817Z,61.54
2018-05-11T01:07:11.228Z,61.70
2018-05-11T01:09:38.645Z,61.72
2018-05-11T01:12:06.069Z,62.00
2018-05-11T01:14:33.481Z,62.03
2018-05-11T01:17:00.991Z,62.33
2018-05-11T01:19:28.302Z,62.33
2018-05-11T01:21:55.717Z,62.54
2018-05-11T01:24:23.119Z,62.26
2018-05-11T01:26:50.545Z,62.24
2018-05-11T01:29:17.953Z,62.17
2018-05-11T01:31:45.392Z,62.04
2018-05-11T01:34:12.797Z,61.93
2018-05-11T01:36:40.232Z,61.96
2018-05-11T01:39:07.642Z,62.16
2018-05-11T01:41:35.049Z,62.25
2018-05-11T01:44:02.456Z,62.19
2018-05-11T01:46:29.865Z,62.31
2018-05-11T01:48:57.334Z,62.31
2018-05-11T01:51:24.704Z,62.31
2018-05-11T01:53:52.136Z,62.49
2018-05-11T01:56:19.536Z,62.45
2018-05-11T01:58:46.948Z,62.01
2018-05-11T02:01:14.357Z,62.08
2018-05-11T02:03:41.777Z,62.04
2018-05-11T02:06:09.185Z,61.79
2018-05-11T02:08:36.596Z,61.57
2018-05-11T02:11:04.000Z,61.37
2018-05-11T02:13:31.413Z,60.87
2018-05-11T02:15:58.820Z,61.09
2018-05-11T02:18:26.228Z,61.01
2018-05-11T02:20:53.636Z,61.07
2018-05-11T02:23:21.052Z,60.82
2018-05-11T02:25:48.544Z,60.87
2018-05-11T02:28:15.873Z,60.76
2018-05-11T02:30:43.277Z,60.86
2018-05-11T02:33:10.717Z,60.77
2018-05-11T02:35:38.120Z,60.92
2018-05-11T02:38:05.540Z,61.30
2018-05-11T02:40:32.944Z,61.34
2018-05-11T02:43:00.368Z,61.47
2018-05-11T02:45:27.772Z,61.52
2018-05-11T02:47:55.180Z,61.63
2018-05-11T02:50:22.583Z,61.71
2018-05-11T02:52:50.005Z,61.88
2018-05-11T02:55:17.413Z,61.99
2018-05-11T02:57:44.832Z,62.01
2018-05-11T03:00:12.255Z,62.13
2018-05-11T03:02:39.661Z,62.29
2018-05-11T03:05:07.070Z,62.19
2018-05-11T03:07:34.475Z,62.26
2018-05-11T03:10:01.898Z,61.93
2018-05-11T03:12:29.298Z,61.78
2018-05-11T03:14:56.725Z,61.49
2018-05-11T03:17:24.124Z,61.30
2018-05-11T03:19:51.536Z,61.24
2018-05-11T03:22:18.940Z,61.24
2018-05-11T03:24:46.358Z,61.11
2018-05-11T03:27:13.764Z,61.16
2018-05-11T03:29:41.186Z,60.96
2018-05-11T03:32:08.580Z,60.92
2018-05-11T03:34:36.010Z,60.94
2018-05-11T03:37:03.416Z,61.14
2018-05-11T03:39:30.831Z,61.30
2018-05-11T03:41:58.236Z,61.12
2018-05-11T03:44:25.640Z,61.26
2018-05-11T03:46:53.061Z,61.32
2018-05-11T03:49:20.469Z,61.32
2018-05-11T03:51:47.880Z,61.18
2018-05-11T03:54:15.300Z,61.02
2018-05-11T03:56:42.709Z,60.93
2018-05-11T03:59:10.124Z,60.96
2018-05-11T04:01:49.467Z,60.87
2018-05-11T04:04:28.611Z,60.85
2018-05-11T04:07:08.636Z,60.83
2018-05-11T04:09:36.048Z,61.04
2018-05-11T04:12:03.459Z,61.19
2018-05-11T04:14:30.868Z,61.21
2018-05-11T04:16:58.277Z,61.21
2018-05-11T04:19:25.696Z,61.28
2018-05-11T04:21:53.109Z,61.32
2018-05-11T04:24:20.516Z,61.25
2018-05-11T04:26:47.925Z,61.34
2018-05-11T04:29:15.360Z,61.28
2018-05-11T04:31:42.767Z,61.34
2018-05-11T04:34:10.189Z,61.39
2018-05-11T04:36:37.591Z,61.42
2018-05-11T04:39:05.816Z,61.54
2018-05-11T04:41:33.229Z,61.51
2018-05-11T04:44:00.640Z,61.51
2018-05-11T04:46:28.044Z,61.68
2018-05-11T04:48:55.470Z,61.79
2018-05-11T04:51:22.882Z,61.88
2018-05-11T04:53:50.308Z,61.97
2018-05-11T04:56:17.716Z,61.99
2018-05-11T04:58:45.124Z,61.98
2018-05-11T05:01:12.546Z,62.06
2018-05-11T05:03:39.954Z,61.88
2018-05-11T05:06:07.377Z,62.00
2018-05-11T05:08:34.780Z,61.92
2018-05-11T05:11:02.203Z,61.84
2018-05-11T05:13:29.605Z,61.40
2018-05-11T05:15:57.011Z,61.59
2018-05-11T05:18:24.425Z,61.42
2018-05-11T05:20:51.835Z,61.33
2018-05-11T05:23:19.249Z,61.40
2018-05-11T05:25:46.683Z,61.20
2018-05-11T05:28:14.084Z,60.98
2018-05-11T05:30:41.496Z,61.18
2018-05-11T05:35:41.712Z,60.86
2018-05-11T05:38:09.114Z,60.85
2018-05-11T05:40:36.570Z,60.50
2018-05-11T05:43:03.980Z,60.46
2018-05-11T05:45:31.388Z,60.31
2018-05-11T05:47:58.805Z,60.35
2018-05-11T05:50:26.220Z,60.39
2018-05-11T05:52:53.632Z,60.25
2018-05-11T05:55:21.053Z,60.34
2018-05-11T05:57:48.461Z,60.05
2018-05-11T06:00:15.875Z,60.10
2018-05-11T06:02:43.285Z,59.46
2018-05-11T06:05:10.700Z,58.92
2018-05-11T06:07:38.116Z,59.21
2018-05-11T06:10:05.528Z,59.01
2018-05-11T06:12:32.924Z,58.54
2018-05-11T06:15:00.344Z,58.86
2018-05-11T06:17:27.751Z,58.86
2018-05-11T06:19:55.173Z,58.91
2018-05-11T06:22:22.571Z,58.90
2018-05-11T06:24:50.045Z,59.18
2018-05-11T06:27:17.401Z,58.97
2018-05-11T06:29:44.818Z,58.63
2018-05-11T06:32:12.217Z,59.04
2018-05-11T06:34:39.629Z,57.42
2018-05-11T06:37:07.040Z,57.61
2018-05-11T06:39:34.447Z,57.61
2018-05-11T06:42:01.863Z,57.67
2018-05-11T06:44:29.277Z,57.85
2018-05-11T06:46:56.685Z,57.69
2018-05-11T06:49:24.094Z,57.73
2018-05-11T06:51:51.508Z,57.72
2018-05-11T06:54:18.912Z,56.79
2018-05-11T06:56:46.333Z,57.10
2018-05-11T06:59:13.735Z,56.97
2018-05-11T07:01:41.255Z,56.78
2018-05-11T07:04:08.565Z,56.37
2018-05-11T07:06:35.988Z,55.45
2018-05-11T07:09:03.410Z,55.50
2018-05-11T07:11:30.820Z,55.08
2018-05-11T07:13:58.237Z,54.96
2018-05-11T07:16:25.649Z,54.80
2018-05-11T07:18:53.060Z,54.69
2018-05-11T07:21:20.478Z,53.74
2018-05-11T07:23:47.887Z,53.97
2018-05-11T07:26:15.309Z,53.30
2018-05-11T07:28:42.717Z,52.81
2018-05-11T07:31:10.132Z,52.30
2018-05-11T07:33:37.537Z,51.57
2018-05-11T07:36:04.953Z,49.48
2018-05-11T07:38:32.357Z,48.97
2018-05-11T07:40:59.770Z,49.07
2018-05-11T07:43:27.271Z,48.72
2018-05-11T07:45:54.593Z,47.79
2018-05-11T07:48:22.029Z,47.73
2018-05-11T07:50:49.449Z,47.08
2018-05-11T07:53:16.852Z,46.77
2018-05-11T07:55:44.281Z,46.04
2018-05-11T07:58:11.698Z,45.03
2018-05-11T08:00:39.112Z,44.25
2018-05-11T08:03:06.530Z,44.70
2018-05-11T08:05:33.948Z,44.10
2018-05-11T08:08:01.357Z,43.25
2018-05-11T08:10:28.786Z,43.41
2018-05-11T08:12:56.204Z,43.42
2018-05-11T08:15:23.616Z,43.15
2018-05-11T08:17:51.049Z,42.70
2018-05-11T08:20:18.468Z,42.92
2018-05-11T08:22:45.879Z,41.97
2018-05-11T08:25:13.296Z,42.26
2018-05-11T08:27:40.722Z,42.13
2018-05-11T08:30:08.129Z,42.44
2018-05-11T08:32:35.565Z,41.04
2018-05-11T08:35:02.977Z,41.39
2018-05-11T08:37:30.413Z,41.82
2018-05-11T08:39:57.828Z,41.07
2018-05-11T08:42:25.243Z,40.18
2018-05-11T08:44:52.667Z,39.43
2018-05-11T08:47:20.102Z,40.15
2018-05-11T08:49:47.544Z,38.71
2018-05-11T08:52:14.952Z,38.62
2018-05-11T08:54:42.373Z,38.88
2018-05-11T08:57:09.795Z,39.03
2018-05-11T08:59:37.203Z,38.03
2018-05-11T09:02:04.629Z,38.13
2018-05-11T09:04:32.040Z,37.88
2018-05-11T09:06:59.472Z,37.15
2018-05-11T09:09:26.886Z,37.47
2018-05-11T09:11:54.301Z,36.36
2018-05-11T09:14:21.721Z,35.83
2018-05-11T09:16:49.140Z,35.76
2018-05-11T09:19:16.561Z,35.74
2018-05-11T09:21:44.060Z,35.38
2018-05-11T09:24:11.396Z,34.73
2018-05-11T09:26:38.820Z,34.85
2018-05-11T09:29:06.240Z,34.49
2018-05-11T09:31:33.656Z,34.07
2018-05-11T09:34:01.080Z,33.50
2018-05-11T09:36:28.499Z,33.29
2018-05-11T09:38:55.919Z,33.29
2018-05-11T09:41:23.337Z,32.35
2018-05-11T09:43:50.749Z,33.01
2018-05-11T09:46:18.168Z,32.05
2018-05-11T09:48:45.621Z,32.12
2018-05-11T09:51:13.034Z,31.57
2018-05-11T09:53:40.460Z,31.57
2018-05-11T09:56:07.868Z,31.07
2018-05-11T09:58:35.298Z,30.98
2018-05-11T10:01:02.715Z,30.84
2018-05-11T10:03:30.137Z,30.42
2018-05-11T10:05:57.547Z,30.30
2018-05-11T10:08:24.989Z,30.11
2018-05-11T10:10:52.397Z,29.57
2018-05-11T10:13:19.825Z,29.72
2018-05-11T10:15:47.241Z,29.62
2018-05-11T10:18:14.669Z,29.08
2018-05-11T10:20:42.191Z,29.10
2018-05-11T10:23:09.528Z,28.58
2018-05-11T10:25:36.942Z,29.06
2018-05-11T10:28:04.393Z,29.21
2018-05-11T10:30:31.800Z,29.27
2018-05-11T10:32:59.229Z,29.65
2018-05-11T10:35:26.642Z,29.67
2018-05-11T10:37:54.072Z,29.66
2018-05-11T10:40:21.480Z,29.36
2018-05-11T10:42:48.900Z,30.06
2018-05-11T10:45:16.324Z,30.72
2018-05-11T10:47:43.745Z,31.25
2018-05-11T10:50:11.166Z,31.55
2018-05-11T10:52:38.584Z,31.52
2018-05-11T10:55:06.003Z,31.55
2018-05-11T10:57:33.428Z,31.64
2018-05-11T11:00:00.848Z,31.94
2018-05-11T11:02:28.288Z,32.07
2018-05-11T11:04:55.689Z,31.53
2018-05-11T11:07:23.112Z,31.28
2018-05-11T11:09:50.529Z,31.48
2018-05-11T11:12:17.952Z,30.75
2018-05-11T11:14:45.372Z,30.82
2018-05-11T11:17:12.801Z,30.67
2018-05-11T11:19:40.209Z,30.66
2018-05-11T11:22:07.620Z,29.69
2018-05-11T11:24:35.043Z,30.07
2018-05-11T11:27:02.478Z,30.42
2018-05-11T11:29:29.896Z,30.23
2018-05-11T11:31:57.312Z,30.59
2018-05-11T11:34:24.747Z,30.75
2018-05-11T11:36:52.222Z,30.75
2018-05-11T11:39:19.567Z,30.79
2018-05-11T11:41:47.044Z,30.51
2018-05-11T11:44:14.444Z,31.06
2018-05-11T11:46:41.840Z,31.15
2018-05-11T11:49:09.256Z,31.09
2018-05-11T11:51:36.673Z,31.61
2018-05-11T11:54:04.093Z,31.46
2018-05-11T11:56:31.548Z,31.47
2018-05-11T11:58:58.940Z,31.73
2018-05-11T12:01:26.349Z,32.06
2018-05-11T12:03:53.784Z,32.16
2018-05-11T12:06:21.201Z,32.30
2018-05-11T12:08:48.629Z,32.40
2018-05-11T12:11:16.048Z,32.30
2018-05-11T12:13:43.468Z,32.40
2018-05-11T12:16:10.896Z,32.67
2018-05-11T12:18:38.311Z,32.96
2018-05-11T12:21:05.724Z,32.85
2018-05-11T12:23:33.152Z,33.02
2018-05-11T12:26:00.633Z,33.05
2018-05-11T12:28:27.997Z,33.03
2018-05-11T12:30:55.412Z,33.02
2018-05-11T12:33:22.869Z,33.17
2018-05-11T12:35:50.280Z,33.36
2018-05-11T12:38:17.708Z,32.96
2018-05-11T12:40:45.129Z,33.36
2018-05-11T12:43:12.588Z,33.33
2018-05-11T12:45:40.001Z,33.35
2018-05-11T12:48:07.425Z,32.89
2018-05-11T12:50:34.846Z,33.02
2018-05-11T12:53:02.270Z,32.47
2018-05-11T12:55:29.675Z,32.50
2018-05-11T12:57:57.091Z,32.63
2018-05-11T13:00:24.503Z,32.83
2018-05-11T13:02:51.927Z,32.66
2018-05-11T13:05:19.356Z,32.50
2018-05-11T13:07:46.781Z,31.95
2018-05-11T13:10:14.200Z,32.17
2018-05-11T13:12:41.613Z,32.40
2018-05-11T13:15:09.033Z,32.14
2018-05-11T13:17:36.448Z,32.27
2018-05-11T13:20:03.877Z,32.37
2018-05-11T13:22:31.289Z,32.36
2018-05-11T13:24:58.708Z,32.61
2018-05-11T13:27:26.124Z,32.54
2018-05-11T13:29:53.541Z,32.77
2018-05-11T13:32:20.980Z,33.28
2018-05-11T13:34:48.405Z,33.44
2018-05-11T13:37:15.824Z,33.15
2018-05-11T13:39:43.244Z,33.27
2018-05-11T13:42:10.691Z,33.19
2018-05-11T13:44:38.097Z,32.69
2018-05-11T13:47:05.556Z,32.56
2018-05-11T13:49:32.976Z,32.83
2018-05-11T13:52:00.389Z,32.88
2018-05-11T13:54:27.819Z,32.66
2018-05-11T13:56:55.229Z,32.66
2018-05-11T13:59:22.656Z,32.76
2018-05-11T14:01:50.065Z,32.79
2018-05-11T14:04:17.488Z,32.78
2018-05-11T14:06:44.901Z,32.91
2018-05-11T14:09:12.316Z,33.13
2018-05-11T14:11:39.757Z,33.18
2018-05-11T14:14:07.203Z,33.24
2018-05-11T14:16:34.658Z,32.92
2018-05-11T14:19:02.080Z,33.42
2018-05-11T14:21:29.499Z,33.46
2018-05-11T14:23:56.912Z,33.44
2018-05-11T14:26:24.328Z,33.82
2018-05-11T14:28:51.747Z,33.65
2018-05-11T14:31:19.190Z,33.68
2018-05-11T14:33:46.600Z,33.45
2018-05-11T14:36:14.017Z,33.58
2018-05-11T14:38:41.432Z,33.63
2018-05-11T14:41:08.860Z,33.39
2018-05-11T14:43:36.273Z,33.20
2018-05-11T14:46:03.700Z,33.33
2018-05-11T14:48:31.119Z,33.33
2018-05-11T14:50:58.543Z,33.57
2018-05-11T14:53:25.948Z,33.83
2018-05-11T14:55:53.380Z,33.48
2018-05-11T14:58:20.791Z,33.07
2018-05-11T15:00:48.217Z,32.69
2018-05-11T15:03:15.624Z,32.28
2018-05-11T15:05:43.052Z,32.39
2018-05-11T15:08:10.462Z,32.18
2018-05-11T15:10:37.876Z,32.42
2018-05-11T15:13:05.293Z,32.25
2018-05-11T15:15:32.731Z,32.23
2018-05-11T15:18:00.126Z,32.30
2018-05-11T15:20:27.556Z,32.44
2018-05-11T15:22:54.964Z,33.26
2018-05-11T15:25:22.412Z,32.90
2018-05-11T15:27:49.820Z,33.35
2018-05-11T15:30:17.246Z,33.19
2018-05-11T15:32:44.660Z,33.62
2018-05-11T15:35:12.089Z,34.01
2018-05-11T15:37:39.513Z,34.26
2018-05-11T15:40:06.932Z,34.72
2018-05-11T15:42:34.360Z,34.97
2018-05-11T15:45:01.783Z,35.32
2018-05-11T15:47:29.195Z,35.48
2018-05-11T15:49:56.616Z,35.28
2018-05-11T15:52:24.020Z,35.35
2018-05-11T15:54:51.446Z,35.26
2018-05-11T15:57:18.860Z,35.42
2018-05-11T15:59:46.283Z,34.99
2018-05-11T16:02:13.696Z,34.99
2018-05-11T16:04:41.122Z,35.24
2018-05-11T16:07:08.537Z,35.04
2018-05-11T16:09:35.954Z,34.70
2018-05-11T16:12:03.359Z,34.98
2018-05-11T16:14:30.784Z,34.93
2018-05-11T16:16:58.199Z,34.80
2018-05-11T16:19:25.643Z,34.79
2018-05-11T16:21:53.043Z,34.76
2018-05-11T16:24:20.460Z,34.86
2018-05-11T16:26:47.888Z,34.72
2018-05-11T16:29:15.308Z,34.92
2018-05-11T16:31:42.729Z,35.16
2018-05-11T16:34:10.144Z,35.41
2018-05-11T16:36:37.565Z,35.41
2018-05-11T16:39:05.809Z,35.42
2018-05-11T16:41:33.233Z,35.23
2018-05-11T16:44:00.644Z,35.29
2018-05-11T18:05:06.676Z,42.15
2018-05-11T18:07:34.088Z,42.84
2018-05-11T18:10:01.565Z,43.30
2018-05-11T18:12:29.007Z,43.30
2018-05-11T18:14:56.335Z,43.07
2018-05-11T18:17:23.748Z,42.75
2018-05-11T18:19:51.158Z,42.87
2018-05-11T18:22:18.590Z,43.13
2018-05-11T18:24:46.002Z,43.14
2018-05-11T18:27:13.425Z,43.03
2018-05-11T18:29:40.845Z,43.19
2018-05-11T18:32:08.264Z,43.09
2018-05-11T18:34:35.668Z,43.01
2018-05-11T18:37:03.098Z,42.91
2018-05-11T18:39:30.496Z,42.89
2018-05-11T18:41:57.917Z,43.23
2018-05-11T18:44:25.334Z,43.94
2018-05-11T18:46:52.859Z,44.16
2018-05-11T18:49:20.190Z,44.26
2018-05-11T18:51:47.600Z,43.92
2018-05-11T18:54:15.198Z,43.95
2018-05-11T18:56:42.435Z,43.95
2018-05-11T18:59:09.843Z,44.39
2018-05-11T19:01:37.279Z,44.81
2018-05-11T19:04:04.664Z,45.17
2018-05-11T19:06:32.089Z,45.26
2018-05-11T19:08:59.602Z,45.46
2018-05-11T19:11:26.930Z,45.35
2018-05-11T19:13:54.348Z,44.59
2018-05-11T19:16:21.778Z,44.57
2018-05-11T19:18:49.188Z,45.21
2018-05-11T19:21:16.600Z,45.89
2018-05-11T19:23:44.017Z,46.12
2018-05-11T19:26:11.527Z,46.89
2018-05-11T19:28:38.852Z,47.60
2018-05-11T19:31:06.260Z,47.99
2018-05-11T19:33:33.820Z,48.63
2018-05-11T19:36:01.462Z,49.08
2018-05-11T19:38:28.864Z,49.58
2018-05-11T19:40:56.275Z,49.74
2018-05-11T19:43:23.688Z,51.07
2018-05-11T19:45:51.104Z,50.74
2018-05-11T19:48:18.525Z,50.95
2018-05-11T19:50:45.936Z,51.42
2018-05-11T19:53:13.356Z,51.62
2018-05-11T19:55:40.760Z,51.51
2018-05-11T19:58:08.184Z,51.97
2018-05-11T20:00:35.601Z,52.26
2018-05-11T20:03:03.021Z,52.15
2018-05-11T20:05:30.428Z,52.19
2018-05-11T20:07:57.860Z,52.23
2018-05-11T20:10:25.272Z,52.30
2018-05-11T20:12:52.697Z,52.32
2018-05-11T20:15:20.105Z,52.08
2018-05-11T20:17:47.524Z,51.81
2018-05-11T20:20:14.928Z,51.88
2018-05-11T20:22:42.349Z,50.90
2018-05-11T20:25:09.752Z,50.76
2018-05-11T20:27:37.170Z,50.37
2018-05-11T20:30:04.576Z,49.98
2018-05-11T20:32:32.030Z,49.93
2018-05-11T20:34:59.408Z,50.00
2018-05-11T20:37:26.824Z,50.07
2018-05-11T20:39:54.237Z,50.01
2018-05-11T20:42:21.648Z,50.11
2018-05-11T20:44:49.056Z,49.68
2018-05-11T20:47:16.477Z,49.71
2018-05-11T20:49:43.885Z,49.36
2018-05-11T20:52:11.315Z,49.06
2018-05-11T20:54:38.859Z,49.14
2018-05-11T20:57:06.267Z,49.08
2018-05-11T20:59:33.677Z,48.97
2018-05-11T21:02:01.090Z,49.05
2018-05-11T21:04:28.508Z,48.83
2018-05-11T21:06:55.917Z,48.51
2018-05-11T21:09:23.331Z,48.42
2018-05-11T21:11:50.741Z,48.59
2018-05-11T21:14:18.161Z,48.28
2018-05-11T21:16:45.569Z,48.10
2018-05-11T21:19:12.989Z,48.10
2018-05-11T21:21:40.396Z,48.14
2018-05-11T21:24:07.811Z,48.03
2018-05-11T21:26:35.207Z,47.88
2018-05-11T21:29:02.636Z,47.81
2018-05-11T21:31:30.044Z,48.00
2018-05-11T21:33:57.462Z,47.83
2018-05-11T21:36:24.869Z,47.70
2018-05-11T21:38:52.288Z,47.69
2018-05-11T21:41:19.696Z,47.81
2018-05-11T21:43:47.104Z,47.87
2018-05-11T21:46:14.513Z,47.80
2018-05-11T21:48:41.937Z,47.97
2018-05-11T21:51:09.341Z,47.92
2018-05-11T21:53:36.759Z,47.85
2018-05-11T21:56:04.161Z,47.86
2018-05-11T21:58:31.576Z,48.02
2018-05-11T22:00:58.979Z,47.96
2018-05-11T22:03:26.395Z,48.05
2018-05-11T22:05:53.898Z,48.05
2018-05-11T22:08:21.224Z,48.14
2018-05-11T22:10:48.633Z,48.10
2018-05-11T22:13:16.048Z,47.88
2018-05-11T22:15:43.469Z,47.96
2018-05-11T22:18:10.880Z,47.85
2018-05-11T22:20:38.288Z,48.01
2018-05-11T22:23:05.708Z,48.26
2018-05-11T22:25:33.111Z,48.17
2018-05-11T22:28:00.530Z,48.29
2018-05-11T22:30:27.982Z,48.22
2018-05-11T22:32:55.356Z,48.33
2018-05-11T22:35:22.762Z,48.40
2018-05-11T22:37:50.181Z,48.64
2018-05-11T22:40:17.597Z,48.71
2018-05-11T22:42:45.002Z,48.76
2018-05-11T22:45:12.417Z,48.81
2018-05-11T22:47:39.825Z,48.83
2018-05-11T22:50:07.241Z,48.84
2018-05-11T22:52:34.643Z,49.06
2018-05-11T22:55:02.060Z,48.98
2018-05-11T22:57:29.476Z,49.14
2018-05-11T22:59:56.912Z,49.38
2018-05-11T23:02:24.317Z,49.44
2018-05-11T23:04:51.738Z,49.48
2018-05-11T23:07:19.144Z,49.57
2018-05-11T23:09:46.561Z,49.61
2018-05-11T23:12:13.968Z,49.62
2018-05-11T23:14:41.393Z,49.67
2018-05-11T23:17:08.833Z,49.78
2018-05-11T23:19:36.238Z,49.90
2018-05-11T23:22:03.649Z,50.20
2018-05-11T23:24:31.052Z,50.31
2018-05-11T23:26:58.454Z,50.50
2018-05-11T23:29:25.868Z,50.81
2018-05-11T23:31:53.272Z,50.93
2018-05-11T23:34:20.694Z,51.32
2018-05-11T23:36:48.105Z,51.65
2018-05-11T23:39:15.517Z,51.98
2018-05-11T23:41:42.929Z,52.21
2018-05-11T23:44:10.347Z,52.20
2018-05-11T23:46:37.776Z,52.61
2018-05-11T23:49:05.184Z,52.68
2018-05-11T23:51:32.602Z,52.83
2018-05-11T23:54:00.024Z,53.26
2018-05-11T23:56:27.424Z,53.19
2018-05-11T23:58:54.844Z,53.36
